Time;durP1;ratioP1;P1;durP2;ratioP2;P2;SDS_P1;SDS_P2;PMS_P1;PMS_P2;Temp;Humidity;BMP_temperature;BMP_pressure;BME280_temperature;BME280_humidity;BME280_pressure;Samples;Min_cycle;Max_cycle;Signal;HPM_P1;HPM_P2
2021/04/13 00:02:28;;;;;;;14.68;5.78;;;;;;;1.59;88.77;97598.25;5000068;28;20491;-44
2021/04/13 00:05:00;;;;;;;11.30;4.65;;;;;;;1.60;88.93;97595.69;4991813;28;20843;-39
2021/04/13 00:07:30;;;;;;;11.55;5.15;;;;;;;1.66;89.07;97595.63;4994323;28;20565;-38
2021/04/13 00:10:06;;;;;;;8.48;4.97;;;;;;;1.71;89.12;97590.44;4999284;28;20462;-45
2021/04/13 00:12:33;;;;;;;7.00;3.88;;;;;;;1.68;89.12;97585.31;5002839;28;20262;-36
2021/04/13 00:15:05;;;;;;;10.95;3.90;;;;;;;1.75;88.77;97587.81;5008334;28;20695;-46
2021/04/13 00:17:33;;;;;;;4.75;3.10;;;;;;;1.72;88.80;97590.44;5008302;28;20193;-37
2021/04/13 00:20:08;;;;;;;5.90;3.55;;;;;;;1.71;89.18;97591.25;4994563;28;20224;-44
2021/04/13 00:22:37;;;;;;;7.70;4.00;;;;;;;1.61;89.08;97574.28;5009375;28;20571;-37
2021/04/13 00:25:06;;;;;;;6.72;3.42;;;;;;;1.42;88.07;97561.69;5002407;28;20668;-37
2021/04/13 00:27:33;;;;;;;5.38;3.40;;;;;;;1.50;87.71;97595.78;5009950;28;20192;-43
2021/04/13 00:30:12;;;;;;;9.32;4.85;;;;;;;1.50;87.53;97596.66;4998404;28;20680;-44
2021/04/13 00:32:56;;;;;;;14.15;5.88;;;;;;;1.49;87.82;97594.94;4995754;28;20745;-37
2021/04/13 00:35:34;;;;;;;8.57;4.20;;;;;;;1.53;88.16;97595.75;5019360;28;20224;-43
2021/04/13 00:38:31;;;;;;;11.40;5.60;;;;;;;1.55;88.25;97594.88;5009969;28;20517;-37
2021/04/13 00:41:07;;;;;;;7.57;4.70;;;;;;;1.52;88.45;97600.06;4976838;28;20822;-37
2021/04/13 00:43:38;;;;;;;9.93;4.30;;;;;;;1.50;88.21;97586.41;4998006;28;20549;-44
2021/04/13 00:46:11;;;;;;;6.30;4.15;;;;;;;1.45;88.74;97593.28;5006513;28;20510;-43
2021/04/13 00:48:43;;;;;;;6.82;3.47;;;;;;;1.47;88.75;97596.69;5010990;28;20900;-44
2021/04/13 00:51:21;;;;;;;4.05;3.28;;;;;;;1.45;88.26;97589.84;5002741;28;20375;-44
2021/04/13 00:53:51;;;;;;;5.90;3.55;;;;;;;1.53;88.53;97590.63;5003541;28;20212;-43
2021/04/13 00:56:19;;;;;;;8.82;3.88;;;;;;;1.57;88.25;97595.72;5011407;28;20282;-37
2021/04/13 00:58:49;;;;;;;9.95;4.10;;;;;;;1.46;87.99;97584.72;5011352;28;20223;-42
2021/04/13 01:01:21;;;;;;;8.57;3.60;;;;;;;1.39;88.94;97590.78;4991631;28;20190;-38
2021/04/13 01:03:54;;;;;;;6.75;3.28;;;;;;;1.28;89.03;97590.06;4997322;28;20545;-37
2021/04/13 01:06:24;;;;;;;10.57;3.95;;;;;;;1.32;88.94;97594.28;4994588;28;20193;-44
2021/04/13 01:09:01;;;;;;;8.77;3.50;;;;;;;1.31;89.17;97599.41;5010204;28;20225;-44
2021/04/13 01:11:31;;;;;;;7.05;3.70;;;;;;;1.31;89.24;97605.41;4996337;28;20381;-37
2021/04/13 01:14:01;;;;;;;6.22;4.25;;;;;;;1.26;89.46;97586.63;4997811;28;20741;-37
2021/04/13 01:16:46;;;;;;;6.85;3.72;;;;;;;1.32;89.69;97601.97;4997919;28;20193;-37
2021/04/13 01:19:28;;;;;;;8.65;3.70;;;;;;;1.35;89.76;97599.38;4974306;28;20244;-44
2021/04/13 01:22:07;;;;;;;4.28;2.65;;;;;;;1.33;89.87;97598.53;4985270;28;20193;-43
2021/04/13 01:24:38;;;;;;;7.25;3.28;;;;;;;1.25;90.20;97584.94;4981246;28;20225;-44
2021/04/13 01:27:11;;;;;;;7.97;3.20;;;;;;;1.25;90.30;97589.25;4981469;28;20190;-35
2021/04/13 01:29:41;;;;;;;5.18;2.92;;;;;;;1.27;90.89;97593.47;4976421;28;20600;-42
2021/04/13 01:32:10;;;;;;;3.10;2.40;;;;;;;1.31;90.37;97594.28;4989219;28;20537;-42
2021/04/13 01:34:54;;;;;;;7.55;3.88;;;;;;;1.30;89.90;97588.31;4974351;28;20426;-35
2021/04/13 01:37:31;;;;;;;3.75;3.33;;;;;;;1.34;89.70;97595.09;4976959;28;20589;-41
2021/04/13 01:40:03;;;;;;;11.48;4.07;;;;;;;1.31;88.98;97590.00;4991155;28;20208;-35
2021/04/13 01:42:36;;;;;;;7.05;4.35;;;;;;;1.18;88.73;97593.56;4986285;28;20706;-35
2021/04/13 01:45:11;;;;;;;4.05;2.97;;;;;;;1.05;88.80;97594.53;4971074;28;20222;-38
2021/04/13 01:47:43;;;;;;;8.52;4.18;;;;;;;1.06;89.01;97592.81;4970915;28;20624;-44
2021/04/13 01:50:16;;;;;;;7.53;3.40;;;;;;;1.04;89.06;97586.88;4990074;28;20244;-43
2021/04/13 01:52:47;;;;;;;8.00;3.75;;;;;;;1.05;88.86;97591.13;4977552;28;20621;-43
2021/04/13 01:55:19;;;;;;;5.63;3.33;;;;;;;1.02;89.39;97584.31;4991232;28;20437;-37
2021/04/13 01:57:54;;;;;;;14.07;3.05;;;;;;;1.06;89.51;97588.56;4990820;28;20640;-38
2021/04/13 02:00:28;;;;;;;6.65;3.30;;;;;;;1.11;89.63;97591.09;4983266;28;20221;-45
2021/04/13 02:03:06;;;;;;;7.63;3.10;;;;;;;1.11;89.32;97591.91;4974577;28;20525;-44
2021/04/13 02:05:36;;;;;;;7.63;3.00;;;;;;;1.00;89.07;97598.88;5000214;28;20594;-38
2021/04/13 02:08:20;;;;;;;5.70;2.80;;;;;;;0.87;88.87;97602.38;5005060;28;20207;-38
2021/04/13 02:11:02;;;;;;;8.48;3.10;;;;;;;0.90;88.94;97602.34;4972682;28;20222;-38
2021/04/13 02:13:34;;;;;;;4.93;3.53;;;;;;;0.87;88.78;97607.50;4975988;28;20220;-44
2021/04/13 02:16:07;;;;;;;5.28;3.45;;;;;;;0.87;87.98;97612.63;4980628;28;20400;-43
2021/04/13 02:18:39;;;;;;;11.13;5.07;;;;;;;0.61;87.80;97583.81;4983045;28;20584;-37
2021/04/13 02:21:11;;;;;;;4.80;3.05;;;;;;;0.62;87.62;97616.25;4990978;28;20688;-42
2021/04/13 02:23:45;;;;;;;7.72;4.00;;;;;;;0.55;87.86;97622.28;4990445;28;20695;-43
2021/04/13 02:26:13;;;;;;;6.05;3.72;;;;;;;0.56;87.76;97621.41;4986571;28;20193;-38
2021/04/13 02:28:43;;;;;;;6.60;3.60;;;;;;;0.62;88.16;97621.38;4960783;28;20579;-44
2021/04/13 02:31:14;;;;;;;4.38;2.75;;;;;;;0.70;88.27;97627.28;4977918;28;20186;-38
2021/04/13 02:33:45;;;;;;;5.47;3.20;;;;;;;0.75;88.41;97628.09;4989872;28;20221;-38
2021/04/13 02:36:16;;;;;;;5.72;3.53;;;;;;;0.64;88.40;97595.72;4979856;28;20181;-37
2021/04/13 02:38:49;;;;;;;5.80;3.33;;;;;;;0.74;88.45;97615.31;4989395;28;20656;-39
2021/04/13 02:41:24;;;;;;;8.05;4.22;;;;;;;0.79;88.65;97629.78;4971673;28;20182;-44
2021/04/13 02:43:54;;;;;;;5.53;3.63;;;;;;;0.90;89.01;97625.41;4956879;28;20627;-38
2021/04/13 02:46:28;;;;;;;5.80;3.47;;;;;;;1.05;89.18;97629.56;4958018;28;20548;-44
2021/04/13 02:49:03;;;;;;;5.53;3.40;;;;;;;1.15;88.86;97626.06;4963239;28;20554;-38
2021/04/13 02:51:33;;;;;;;3.45;2.85;;;;;;;1.15;88.93;97626.06;5015464;28;20194;-38
2021/04/13 02:54:15;;;;;;;7.70;4.05;;;;;;;1.15;89.43;97624.34;4978395;28;20708;-38
2021/04/13 02:56:46;;;;;;;8.20;3.55;;;;;;;1.16;89.26;97626.06;5021692;28;20249;-38
2021/04/13 02:59:23;;;;;;;5.40;3.92;;;;;;;1.13;88.53;97615.84;5008702;28;20231;-44
2021/04/13 03:01:55;;;;;;;9.18;3.92;;;;;;;1.18;88.64;97608.94;4999717;28;20856;-44
2021/04/13 03:04:23;;;;;;;7.32;3.78;;;;;;;1.31;88.48;97610.53;4991069;28;20228;-44
2021/04/13 03:06:54;;;;;;;8.77;4.10;;;;;;;1.39;88.69;97606.16;4996993;28;20227;-38
2021/04/13 03:09:26;;;;;;;38.03;22.23;;;;;;;1.36;88.39;97602.78;4991447;28;20605;-38
2021/04/13 03:12:02;;;;;;;10.90;5.78;;;;;;;1.34;88.56;97602.78;4995174;28;20204;-44
2021/04/13 03:14:39;;;;;;;12.40;6.40;;;;;;;1.33;89.05;97613.09;4960106;28;20606;-43
2021/04/13 03:17:12;;;;;;;8.32;5.43;;;;;;;1.25;88.88;97612.31;4986583;28;20231;-38
2021/04/13 03:19:46;;;;;;;5.15;3.20;;;;;;;1.16;89.29;97610.66;4981610;28;20609;-43
2021/04/13 03:22:17;;;;;;;6.57;2.97;;;;;;;1.15;89.04;97619.22;5011174;28;20208;-41
2021/04/13 03:24:49;;;;;;;14.50;3.55;;;;;;;1.10;88.92;97620.97;4990448;28;20806;-46
2021/04/13 03:27:19;;;;;;;15.50;5.70;;;;;;;0.76;88.67;97596.47;5009012;28;20188;-44
2021/04/13 03:30:05;;;;;;;6.68;3.65;;;;;;;0.87;88.50;97633.13;5004363;28;20655;-43
2021/04/13 03:32:39;;;;;;;5.85;3.85;;;;;;;0.80;89.17;97630.63;5021859;28;20812;-44
2021/04/13 03:35:10;;;;;;;13.77;4.05;;;;;;;0.72;88.49;97638.38;5029267;28;20250;-39
2021/04/13 03:38:22;;;;;;;9.25;5.28;;;;;;;0.50;88.45;97635.94;5009711;28;20611;-45
2021/04/13 03:40:56;;;;;;;9.85;4.72;;;;;;;0.41;89.18;97646.25;4969583;28;20193;-38
2021/04/13 03:43:27;;;;;;;10.35;4.32;;;;;;;0.45;89.38;97643.66;4977646;28;20280;-38
2021/04/13 03:45:56;;;;;;;6.97;4.53;;;;;;;0.43;89.24;97639.41;4980326;28;20194;-44
2021/04/13 03:48:26;;;;;;;6.38;4.05;;;;;;;0.44;89.18;97638.56;4980874;28;20604;-44
2021/04/13 03:51:01;;;;;;;6.30;3.78;;;;;;;0.41;89.60;97642.00;4985564;28;20956;-37
2021/04/13 03:53:31;;;;;;;7.07;4.18;;;;;;;0.39;89.83;97643.69;4978373;28;20617;-44
2021/04/13 03:56:04;;;;;;;12.55;4.53;;;;;;;0.42;89.96;97640.28;4988761;28;20197;-44
2021/04/13 03:58:43;;;;;;;6.40;4.25;;;;;;;0.48;90.37;97635.13;4964769;28;20698;-37
2021/04/13 04:01:15;;;;;;;6.82;3.75;;;;;;;0.33;90.53;97615.59;5040892;23;20209;-42
2021/04/13 04:03:52;;;;;;;7.85;4.03;;;;;;;0.34;91.07;97619.84;4940338;28;20608;-42
2021/04/13 04:06:37;;;;;;;9.02;4.15;;;;;;;0.46;90.98;97640.25;4977216;28;20190;-36
2021/04/13 04:09:14;;;;;;;8.48;4.10;;;;;;;0.45;91.33;97641.09;4970216;28;20265;-42
2021/04/13 04:11:43;;;;;;;6.18;3.95;;;;;;;0.51;91.15;97646.19;4973878;28;20190;-42
2021/04/13 04:14:17;;;;;;;8.73;4.22;;;;;;;0.57;90.86;97642.72;4981675;28;20252;-41
2021/04/13 04:16:44;;;;;;;12.60;4.05;;;;;;;0.64;90.37;97644.41;4994484;28;20196;-35
2021/04/13 04:19:15;;;;;;;7.38;3.90;;;;;;;0.64;89.75;97645.25;4980241;28;20687;-41
2021/04/13 04:21:59;;;;;;;8.43;4.25;;;;;;;0.73;89.65;97652.88;4981639;28;20628;-35
2021/04/13 04:24:31;;;;;;;8.23;4.00;;;;;;;0.72;89.46;97652.88;4978399;28;20225;-41
2021/04/13 04:27:05;;;;;;;9.07;4.18;;;;;;;0.71;89.45;97651.19;4961346;28;20177;-35
2021/04/13 04:29:41;;;;;;;11.82;4.00;;;;;;;0.63;89.15;97648.69;4971042;28;20214;-40
2021/04/13 04:32:17;;;;;;;14.18;4.70;;;;;;;0.61;89.42;97652.94;4981287;28;20252;-43
2021/04/13 04:34:53;;;;;;;11.18;4.30;;;;;;;0.59;89.14;97657.22;4976227;28;20256;-38
2021/04/13 04:37:33;;;;;;;6.97;4.43;;;;;;;0.56;88.72;97658.97;4989613;28;20204;-44
2021/04/13 04:40:19;;;;;;;7.55;3.85;;;;;;;0.47;88.67;97661.59;4974738;28;20605;-44
2021/04/13 04:43:43;;;;;;;8.13;3.70;;;;;;;0.47;88.48;97667.53;5002573;28;20200;-38
2021/04/13 04:46:38;;;;;;;10.73;4.13;;;;;;;0.45;88.68;97679.50;4926884;28;20298;-42
2021/04/13 04:49:07;;;;;;;7.97;4.93;;;;;;;0.44;88.97;97672.69;4927243;28;20226;-36
2021/04/13 04:51:35;;;;;;;8.63;5.63;;;;;;;0.46;89.54;97678.63;4949567;28;20205;-40
2021/04/13 04:54:03;;;;;;;15.70;7.30;;;;;;;0.47;89.60;97672.66;4933292;28;20227;-44
2021/04/13 04:56:31;;;;;;;7.70;4.72;;;;;;;0.52;89.73;97680.34;4946743;28;20278;-37
2021/04/13 04:58:59;;;;;;;7.35;4.03;;;;;;;0.56;89.56;97671.78;4948773;28;20304;-44
2021/04/13 05:01:26;;;;;;;9.35;4.05;;;;;;;0.72;89.60;97679.34;4941060;28;20241;-38
2021/04/13 05:03:53;;;;;;;6.13;3.97;;;;;;;0.78;89.13;97676.75;4938259;28;20613;-44
2021/04/13 05:06:21;;;;;;;7.28;4.00;;;;;;;0.73;89.56;97673.38;4943412;28;20872;-37
2021/04/13 05:08:48;;;;;;;6.47;3.92;;;;;;;0.82;89.97;97680.97;4950095;28;20548;-37
2021/04/13 05:11:15;;;;;;;7.03;3.90;;;;;;;0.96;90.02;97686.03;4947097;28;20600;-38
2021/04/13 05:13:42;;;;;;;12.50;4.25;;;;;;;1.02;89.96;97670.59;4919284;28;20222;-41
2021/04/13 05:16:10;;;;;;;7.63;4.43;;;;;;;1.23;89.60;97696.03;4938391;28;20195;-41
2021/04/13 05:18:37;;;;;;;9.85;4.32;;;;;;;1.35;89.30;97693.41;4922291;28;20268;-46
2021/04/13 05:21:05;;;;;;;7.97;4.50;;;;;;;1.46;89.11;97692.44;4987225;28;20262;-41
2021/04/13 05:23:33;;;;;;;8.13;4.35;;;;;;;1.61;89.24;97702.56;5006284;28;20433;-36
2021/04/13 05:26:00;;;;;;;8.15;3.97;;;;;;;1.70;88.69;97705.00;5011634;28;20185;-36
2021/04/13 05:28:28;;;;;;;10.77;5.20;;;;;;;1.82;88.41;97694.66;5009211;28;20646;-36
2021/04/13 05:30:55;;;;;;;12.55;4.75;;;;;;;1.87;88.28;97705.72;5008709;28;20213;-42
2021/04/13 05:33:24;;;;;;;15.95;4.47;;;;;;;1.97;88.24;97706.44;4995928;28;20220;-40
2021/04/13 05:35:52;;;;;;;8.10;4.40;;;;;;;2.02;87.68;97703.00;4994801;28;20703;-44
2021/04/13 05:38:21;;;;;;;7.15;4.88;;;;;;;2.08;87.58;97715.75;4995248;28;20583;-43
2021/04/13 05:40:48;;;;;;;9.13;5.55;;;;;;;2.21;87.43;97712.16;5011423;28;20648;-37
2021/04/13 05:43:18;;;;;;;10.05;5.20;;;;;;;2.34;86.87;97708.59;5009974;28;20642;-43
2021/04/13 05:45:47;;;;;;;7.05;4.75;;;;;;;2.49;86.36;97702.44;5011576;28;20594;-44
2021/04/13 05:48:15;;;;;;;11.32;5.50;;;;;;;2.60;85.82;97714.25;5008585;28;20542;-43
2021/04/13 05:50:45;;;;;;;9.85;5.07;;;;;;;2.41;85.63;97712.78;5012045;28;20536;-43
2021/04/13 05:53:13;;;;;;;10.68;5.63;;;;;;;2.29;86.22;97710.34;5011564;28;20742;-43
2021/04/13 05:55:41;;;;;;;153.35;62.03;;;;;;;2.38;86.61;97714.53;5011012;28;20578;-43
2021/04/13 05:58:13;;;;;;;23.95;12.88;;;;;;;2.65;85.80;97717.59;5007886;28;20193;-43
2021/04/13 06:00:46;;;;;;;22.50;12.40;;;;;;;2.87;84.87;97719.00;5012129;28;20634;-44
2021/04/13 06:03:17;;;;;;;14.50;9.60;;;;;;;2.94;84.68;97723.19;5008886;28;20569;-43
2021/04/13 06:05:44;;;;;;;18.30;8.68;;;;;;;2.94;85.20;97732.63;4996306;28;20624;-37
2021/04/13 06:08:12;;;;;;;13.98;8.05;;;;;;;2.92;84.25;97731.78;5007303;28;20578;-37
2021/04/13 06:10:39;;;;;;;23.77;9.90;;;;;;;2.80;84.03;97730.25;4997099;28;20530;-44
2021/04/13 06:13:08;;;;;;;26.45;13.82;;;;;;;2.52;83.96;97677.53;4995887;28;20634;-37
2021/04/13 06:16:35;;;;;;;22.13;13.73;;;;;;;2.99;83.58;97736.84;5019384;28;20185;-42
2021/04/13 06:19:32;;;;;;;14.02;8.90;;;;;;;3.07;83.74;97726.44;5004795;28;20537;-38
2021/04/13 06:22:00;;;;;;;14.90;8.30;;;;;;;3.29;84.28;97736.38;4979495;28;20186;-37
2021/04/13 06:24:28;;;;;;;18.10;8.70;;;;;;;3.45;84.92;97732.69;5009556;28;20535;-37
2021/04/13 06:26:55;;;;;;;22.73;9.45;;;;;;;3.52;84.80;97738.59;4992162;28;20225;-40
2021/04/13 06:29:28;;;;;;;21.10;8.30;;;;;;;3.50;84.57;97736.03;5002912;28;20546;-43
2021/04/13 06:31:56;;;;;;;15.05;8.00;;;;;;;3.46;83.86;97728.41;4986536;28;20652;-37
2021/04/13 06:34:53;;;;;;;24.27;8.82;;;;;;;3.50;83.84;97741.19;4986453;28;20711;-38
2021/04/13 06:37:22;;;;;;;26.48;8.68;;;;;;;3.64;83.90;97739.25;4993846;28;20300;-42
2021/04/13 06:39:50;;;;;;;16.77;9.00;;;;;;;3.59;83.10;97724.78;4994406;28;20221;-37
2021/04/13 06:42:47;;;;;;;18.00;8.85;;;;;;;3.77;83.67;97755.34;4993630;28;20623;-37
2021/04/13 06:45:27;;;;;;;18.98;8.90;;;;;;;3.87;82.35;97752.56;4979916;28;20319;-43
2021/04/13 06:48:24;;;;;;;28.85;9.60;;;;;;;3.89;82.45;97747.41;5003028;28;20654;-44
2021/04/13 06:51:01;;;;;;;15.48;8.27;;;;;;;4.04;81.92;97747.97;5007208;28;20568;-37
2021/04/13 06:53:57;;;;;;;21.02;9.35;;;;;;;4.07;81.44;97755.66;4977389;28;20870;-44
2021/04/13 06:56:47;;;;;;;19.10;8.32;;;;;;;4.18;81.63;97756.28;4996243;28;20622;-42
2021/04/13 07:00:05;;;;;;;14.80;8.90;;;;;;;4.16;80.89;97751.19;4993032;28;20790;-37
2021/04/13 07:02:48;;;;;;;17.95;9.23;;;;;;;4.23;80.71;97757.91;4972560;28;20282;-38
2021/04/13 07:05:18;;;;;;;16.15;9.18;;;;;;;4.40;80.45;97762.75;4974341;28;20230;-42
2021/04/13 07:07:53;;;;;;;16.77;9.60;;;;;;;4.58;80.53;97754.66;4990641;28;20201;-44
2021/04/13 07:10:25;;;;;;;18.13;10.60;;;;;;;4.72;79.22;97757.81;4987549;28;20219;-37
2021/04/13 07:13:01;;;;;;;17.10;10.52;;;;;;;4.65;79.45;97757.06;4979533;28;20549;-44
2021/04/13 07:15:33;;;;;;;18.15;10.98;;;;;;;4.73;78.89;97757.75;4976025;28;20755;-38
2021/04/13 07:18:05;;;;;;;15.65;9.38;;;;;;;4.88;79.08;97764.34;4983746;28;20659;-43
2021/04/13 07:20:47;;;;;;;20.25;11.10;;;;;;;5.01;78.83;97758.06;4986670;28;20248;-43
2021/04/13 07:23:27;;;;;;;14.48;9.45;;;;;;;5.17;78.79;97756.81;4961444;28;20676;-38
2021/04/13 07:25:58;;;;;;;18.88;8.93;;;;;;;5.41;78.41;97756.25;4975577;28;20797;-35
2021/04/13 07:31:51;;;;;;;13.18;8.30;;;;;;;5.83;76.35;97761.28;4873409;29;20236;-45
2021/04/13 07:34:20;;;;;;;14.80;8.30;;;;;;;6.11;76.37;97761.44;4874473;29;20320;-41
2021/04/13 07:36:55;;;;;;;76.45;40.72;;;;;;;6.56;74.87;97761.03;4887632;29;20586;-35
2021/04/13 07:39:25;;;;;;;15.15;9.70;;;;;;;6.92;73.52;97764.34;4869654;29;20211;-35
2021/04/13 07:41:57;;;;;;;17.95;10.25;;;;;;;7.54;71.67;97751.19;4876495;29;20883;-43
2021/04/13 07:44:39;;;;;;;15.68;7.20;;;;;;;8.11;69.33;97722.53;4876463;29;20228;-43
2021/04/13 07:47:25;;;;;;;11.10;6.82;;;;;;;8.90;67.20;97743.00;4877076;29;20619;-44
2021/04/13 07:49:56;;;;;;;17.27;7.28;;;;;;;8.91;65.28;97739.50;4875976;29;20712;-42
2021/04/13 07:52:42;;;;;;;9.90;6.43;;;;;;;8.55;64.75;97751.25;4873750;29;20578;-42
2021/04/13 07:55:20;;;;;;;12.70;5.10;;;;;;;7.39;62.78;97642.06;4994633;23;20462;-95
2021/04/13 07:57:58;;;;;;;8.10;5.60;;;;;;;7.04;64.59;97599.19;4948975;28;20454;-94
2021/04/13 08:00:30;;;;;;;13.13;6.47;;;;;;;6.77;65.31;97568.19;4953565;28;20497;-96
2021/04/13 08:03:07;;;;;;;12.00;6.70;;;;;;;7.85;65.17;97780.41;4954307;28;20474;-95
2021/04/13 08:05:43;;;;;;;10.10;6.20;;;;;;;6.18;65.68;97463.19;4964286;28;20446;-96
2021/04/13 08:08:32;;;;;;;33.93;7.27;;;;;;;6.05;64.00;97461.84;4967074;28;20481;-96
2021/04/13 08:11:26;;;;;;;10.13;5.80;;;;;;;6.78;65.51;97643.13;4964957;28;20497;-94
2021/04/13 08:14:19;;;;;;;11.23;6.50;;;;;;;6.97;65.33;97649.44;4963565;28;20466;-96
2021/04/13 08:16:47;;;;;;;9.82;8.02;;;;;;;8.11;64.66;97789.94;4972871;28;20465;-96
2021/04/13 08:19:23;;;;;;;12.90;7.15;;;;;;;6.67;63.17;97458.97;4958506;28;20222;-95
2021/04/13 08:22:01;;;;;;;12.57;7.03;;;;;;;8.07;63.08;97675.09;4958692;28;20211;-96
2021/04/13 08:24:36;;;;;;;13.23;7.37;;;;;;;9.21;62.17;97756.56;4958027;28;20496;-95
2021/04/13 08:27:34;;;;;;;10.83;6.63;;;;;;;9.41;60.62;97761.81;4967998;28;20438;-95
2021/04/13 08:30:24;;;;;;;14.40;7.70;;;;;;;9.29;60.80;97762.28;4899096;29;20945;-41
2021/04/13 08:33:04;;;;;;;10.10;6.30;;;;;;;9.39;60.77;97754.09;4912370;29;20810;-41
2021/04/13 08:35:37;;;;;;;9.17;6.93;;;;;;;9.70;59.80;97759.78;4892775;29;20482;-40
2021/04/13 08:38:32;;;;;;;10.43;6.30;;;;;;;10.25;58.59;97758.41;4894752;29;20447;-42
2021/04/13 08:41:14;;;;;;;8.83;6.47;;;;;;;10.49;57.62;97752.13;4900078;29;20782;-41
2021/04/13 08:43:58;;;;;;;11.17;6.93;;;;;;;10.60;56.89;97755.97;4899271;29;20827;-37
2021/04/13 08:46:47;;;;;;;27.13;16.60;;;;;;;10.46;55.20;97753.09;4882503;29;20485;-34
2021/04/13 08:49:33;;;;;;;18.33;7.67;;;;;;;10.42;56.91;97743.75;4899276;28;21042;-35
2021/04/13 08:52:33;;;;;;;11.73;7.17;;;;;;;10.25;55.62;97748.00;4909026;29;20546;-41
2021/04/13 08:55:11;;;;;;;14.80;7.57;;;;;;;10.01;56.23;97749.81;4909720;28;20977;-42
2021/04/13 08:57:43;;;;;;;7.57;6.27;;;;;;;9.89;55.76;97750.31;4889836;29;20998;-42
2021/04/13 09:00:39;;;;;;;10.73;6.57;;;;;;;9.47;55.89;97752.03;4903539;28;20451;-41
2021/04/13 09:03:08;;;;;;;11.50;6.93;;;;;;;8.98;56.58;97754.81;4907145;28;20784;-47
2021/04/13 09:05:38;;;;;;;12.10;7.20;;;;;;;8.65;57.87;97753.41;4908447;29;20919;-37
2021/04/13 09:08:14;;;;;;;13.23;7.83;;;;;;;8.92;57.65;97743.81;4889896;28;21339;-37
2021/04/13 09:10:48;;;;;;;8.80;6.20;;;;;;;9.31;54.74;97748.31;4904791;29;20740;-44
2021/04/13 09:13:34;;;;;;;8.50;5.50;;;;;;;9.39;55.75;97748.91;4904928;28;20473;-38
2021/04/13 09:16:17;;;;;;;35.73;8.33;;;;;;;9.28;56.73;97752.81;4890057;29;20769;-37
2021/04/13 09:18:54;;;;;;;9.80;6.63;;;;;;;9.06;57.58;97755.38;4905313;28;20492;-43
2021/04/13 09:21:50;;;;;;;10.00;6.97;;;;;;;8.83;59.12;97750.19;4907836;29;20792;-44
2021/04/13 09:24:20;;;;;;;11.70;7.60;;;;;;;8.51;59.38;97760.03;4878421;29;20593;-44
2021/04/13 09:27:26;;;;;;;12.67;7.60;;;;;;;8.30;59.86;97759.94;4909123;29;20447;-37
2021/04/13 09:29:55;;;;;;;24.03;7.70;;;;;;;8.32;59.60;97753.75;4903990;28;20507;-46
2021/04/13 09:32:42;;;;;;;10.53;6.33;;;;;;;8.89;57.58;97744.78;4908379;29;20431;-43
2021/04/13 09:35:30;;;;;;;18.83;7.10;;;;;;;9.31;56.62;97744.91;4909856;28;20965;-36
2021/04/13 09:38:15;;;;;;;8.47;6.53;;;;;;;9.91;56.85;97750.25;4888506;28;20915;-42
2021/04/13 09:41:00;;;;;;;9.50;6.50;;;;;;;10.48;54.61;97746.06;4904974;29;20948;-43
2021/04/13 09:43:49;;;;;;;13.40;6.03;;;;;;;11.36;52.39;97737.72;4910476;28;20467;-36
2021/04/13 09:46:38;;;;;;;9.87;5.70;;;;;;;11.92;52.07;97744.56;4906171;29;20969;-36
2021/04/13 09:49:19;;;;;;;17.90;7.17;;;;;;;12.24;50.53;97743.84;4915735;29;20662;-37
2021/04/13 09:52:06;;;;;;;141.30;75.67;;;;;;;12.06;51.09;97742.13;4909665;29;20818;-42
2021/04/13 09:54:37;;;;;;;28.00;14.30;;;;;;;11.73;51.33;97735.97;4912221;29;20475;-42
2021/04/13 09:57:23;;;;;;;14.77;7.30;;;;;;;11.40;51.95;97734.91;4905432;29;20948;-39
2021/04/13 10:00:24;;;;;;;8.73;5.90;;;;;;;11.27;51.08;97739.00;4906064;29;20899;-39
2021/04/13 10:03:27;;;;;;;13.90;6.60;;;;;;;11.36;52.04;97742.94;4906640;29;20459;-40
2021/04/13 10:05:59;;;;;;;10.03;6.30;;;;;;;11.21;52.00;97738.44;4904344;29;20462;-39
2021/04/13 10:08:33;;;;;;;15.57;7.10;;;;;;;10.98;52.64;97736.88;4905560;28;20483;-46
2021/04/13 10:11:30;;;;;;;11.60;6.63;;;;;;;11.04;50.19;97730.56;4904816;29;20938;-39
2021/04/13 10:14:31;;;;;;;9.50;5.73;;;;;;;11.04;51.80;97731.41;4907030;28;20825;-39
2021/04/13 10:17:21;;;;;;;9.17;5.60;;;;;;;11.58;50.00;97722.81;4909295;29;20449;-39
2021/04/13 10:20:01;;;;;;;10.13;6.50;;;;;;;11.88;49.59;97736.97;4908483;29;21049;-44
2021/04/13 10:22:57;;;;;;;12.50;7.10;;;;;;;12.45;46.95;97719.22;4907790;29;21016;-39
2021/04/13 10:26:08;;;;;;;12.20;7.10;;;;;;;12.37;51.00;97725.78;4888043;29;20463;-45
2021/04/13 10:29:30;;;;;;;10.80;7.23;;;;;;;12.34;50.03;97721.56;4905130;28;21126;-39
2021/04/13 10:32:28;;;;;;;13.60;7.23;;;;;;;12.13;48.44;97713.94;4904619;29;20846;-39
2021/04/13 10:35:34;;;;;;;10.23;6.80;;;;;;;11.28;50.44;97725.03;4899786;28;20480;-39
2021/04/13 10:38:54;;;;;;;8.97;6.60;;;;;;;10.89;49.80;97718.25;4867468;29;20922;-39
2021/04/13 10:41:59;;;;;;;10.67;6.73;;;;;;;10.47;52.41;97707.94;4901412;29;20460;-46
2021/04/13 10:45:00;;;;;;;10.67;6.57;;;;;;;10.15;51.12;97724.09;4893461;29;20496;-45
2021/04/13 10:48:13;;;;;;;9.37;6.33;;;;;;;10.00;51.85;97714.31;4901918;29;20452;-46
2021/04/13 10:51:26;;;;;;;10.63;5.50;;;;;;;10.20;52.39;97719.56;4885702;29;20979;-46
2021/04/13 10:54:21;;;;;;;8.63;6.20;;;;;;;10.64;52.38;97700.25;4872935;29;20979;-45
2021/04/13 10:57:21;;;;;;;9.20;6.13;;;;;;;11.12;50.76;97708.44;4901727;29;20460;-39
2021/04/13 11:00:16;;;;;;;17.13;6.93;;;;;;;10.86;49.96;97706.19;4908414;29;20505;-45
2021/04/13 11:03:13;;;;;;;14.03;6.63;;;;;;;11.03;49.32;97702.81;4908057;29;21109;-46
2021/04/13 11:06:11;;;;;;;10.23;5.77;;;;;;;11.32;48.50;97700.53;4884478;29;20934;-46
2021/04/13 11:09:06;;;;;;;9.80;5.30;;;;;;;10.30;48.13;97700.03;4888294;28;20483;-45
2021/04/13 11:12:03;;;;;;;9.47;5.43;;;;;;;9.17;52.71;97698.69;4906441;29;21023;-45
2021/04/13 11:15:08;;;;;;;12.27;5.20;;;;;;;9.74;51.74;97701.53;4893733;29;21073;-39
2021/04/13 11:18:00;;;;;;;10.33;5.50;;;;;;;9.84;49.38;97694.19;4902735;28;20459;-39
2021/04/13 11:20:45;;;;;;;8.03;5.40;;;;;;;11.17;50.42;97685.63;4906837;29;20875;-45
2021/04/13 11:23:58;;;;;;;4.70;3.93;;;;;;;12.46;43.62;97673.09;4886150;29;20448;-45
2021/04/13 11:27:05;;;;;;;10.90;3.80;;;;;;;13.47;43.95;97687.53;4875046;29;20862;-45
2021/04/13 11:30:15;;;;;;;11.70;4.03;;;;;;;14.55;41.25;97670.69;4902867;28;20471;-39
2021/04/13 11:33:17;;;;;;;7.50;4.87;;;;;;;15.26;38.90;97667.91;4875463;29;20947;-39
2021/04/13 11:35:46;;;;;;;11.50;4.60;;;;;;;15.17;41.64;97665.06;4903975;29;20490;-39
2021/04/13 11:38:45;;;;;;;6.53;3.60;;;;;;;14.35;37.76;97669.28;4904463;29;20432;-40
2021/04/13 11:41:43;;;;;;;9.10;3.97;;;;;;;13.85;40.83;97673.97;4902826;29;21078;-40
2021/04/13 11:44:15;;;;;;;8.70;5.37;;;;;;;13.42;42.57;97673.91;4863607;29;20989;-45
2021/04/13 11:46:54;;;;;;;7.03;4.03;;;;;;;12.84;43.54;97670.97;4902090;29;21151;-46
2021/04/13 11:49:34;;;;;;;5.73;4.43;;;;;;;12.14;45.10;97672.13;4903701;28;20482;-39
2021/04/13 11:52:10;;;;;;;6.27;4.50;;;;;;;12.04;45.30;97670.91;4905916;29;21012;-39
2021/04/13 11:54:47;;;;;;;12.67;4.80;;;;;;;11.69;45.97;97676.16;4901423;28;20551;-39
2021/04/13 11:57:17;;;;;;;9.73;4.83;;;;;;;11.63;47.05;97677.31;4901344;29;20431;-39
2021/04/13 12:00:37;;;;;;;9.70;5.37;;;;;;;11.82;46.90;97685.09;4888546;29;20806;-39
2021/04/13 12:03:22;;;;;;;6.93;4.90;;;;;;;11.57;46.89;97674.97;4903280;29;20907;-45
2021/04/13 12:05:51;;;;;;;8.87;4.53;;;;;;;11.46;47.19;97669.44;4907834;29;20927;-45
2021/04/13 12:08:53;;;;;;;7.93;4.67;;;;;;;10.95;47.72;97669.31;4905728;28;20847;-45
2021/04/13 12:11:50;;;;;;;6.97;5.00;;;;;;;10.86;48.59;97674.94;4906310;29;20961;-39
2021/04/13 12:14:30;;;;;;;13.67;4.90;;;;;;;10.79;49.93;97672.66;4853343;29;20783;-45
2021/04/13 12:17:05;;;;;;;11.00;6.00;;;;;;;10.50;50.93;97634.94;4896185;29;20942;-46
2021/04/13 12:19:33;;;;;;;8.30;5.43;;;;;;;10.05;49.92;97678.59;4906835;28;20454;-39
2021/04/13 12:22:20;;;;;;;12.33;5.43;;;;;;;9.36;51.34;97670.22;4901966;29;21033;-38
2021/04/13 12:24:53;;;;;;;11.30;5.53;;;;;;;9.43;50.57;97672.50;4908089;28;20463;-39
2021/04/13 12:27:46;;;;;;;22.93;5.40;;;;;;;10.60;49.92;97667.44;4908633;29;20955;-45
2021/04/13 12:30:58;;;;;;;8.43;5.07;;;;;;;11.09;47.47;97666.91;4883092;29;20468;-45
2021/04/13 12:34:06;;;;;;;10.80;4.40;;;;;;;11.15;43.80;97660.56;4908217;28;20798;-47
2021/04/13 12:36:48;;;;;;;5.17;4.27;;;;;;;11.06;44.45;97667.03;4906467;29;20545;-45